createdAt,value
2022-10-05T00:01:36.167Z,75.50
2022-10-05T00:05:33.199Z,75.50
2022-10-05T00:09:23.144Z,75.60
2022-10-05T00:13:13.373Z,75.60
2022-10-05T00:16:56.872Z,75.70
2022-10-05T00:20:41.470Z,75.50
2022-10-05T00:24:23.687Z,75.60
2022-10-05T00:28:22.934Z,75.60
2022-10-05T00:32:05.199Z,75.70
2022-10-05T00:35:47.218Z,75.60
2022-10-05T00:39:30.087Z,75.60
2022-10-05T00:43:20.713Z,75.60
2022-10-05T00:47:12.168Z,75.60
2022-10-05T00:51:18.461Z,75.70
2022-10-05T00:55:09.391Z,75.70
2022-10-05T00:59:40.117Z,75.70
2022-10-05T01:04:19.238Z,75.90
2022-10-05T01:08:37.323Z,76.10
2022-10-05T01:12:40.632Z,76.10
2022-10-05T01:16:47.611Z,76.30
2022-10-05T01:21:14.550Z,75.90
2022-10-05T01:25:19.423Z,76.40
2022-10-05T01:29:32.604Z,76.30
2022-10-05T01:33:20.581Z,76.10
2022-10-05T01:37:05.263Z,76.30
2022-10-05T01:41:08.894Z,76.50
2022-10-05T01:45:14.656Z,76.40
2022-10-05T01:49:35.954Z,77.00
2022-10-05T01:53:48.303Z,76.80
2022-10-05T01:57:35.714Z,76.60
2022-10-05T02:01:32.417Z,76.30
2022-10-05T02:05:18.585Z,76.50
2022-10-05T02:09:17.304Z,76.60
2022-10-05T02:13:03.502Z,76.50
2022-10-05T02:16:50.382Z,76.40
2022-10-05T02:20:35.202Z,76.40
2022-10-05T02:24:32.475Z,76.50
2022-10-05T02:28:20.871Z,76.80
2022-10-05T02:32:15.731Z,76.70
2022-10-05T02:36:24.048Z,76.80
2022-10-05T02:40:41.626Z,77.00
2022-10-05T02:44:52.959Z,77.20
2022-10-05T02:48:52.686Z,76.80
2022-10-05T02:52:50.944Z,76.80
2022-10-05T02:56:44.824Z,77.20
2022-10-05T03:00:35.041Z,77.30
2022-10-05T03:04:26.307Z,77.00
2022-10-05T03:08:20.208Z,76.90
2022-10-05T03:12:25.275Z,76.90
2022-10-05T03:16:13.275Z,77.30
2022-10-05T03:20:07.205Z,77.20
2022-10-05T03:24:15.168Z,77.30
2022-10-05T03:28:13.761Z,77.80
2022-10-05T03:32:07.713Z,77.50
2022-10-05T03:36:07.557Z,77.00
2022-10-05T03:40:03.169Z,77.30
2022-10-05T03:44:03.582Z,77.10
2022-10-05T03:48:30.196Z,77.70
2022-10-05T03:52:20.873Z,77.40
2022-10-05T03:56:23.386Z,77.30
2022-10-05T04:00:07.682Z,77.70
2022-10-05T04:04:04.271Z,77.40
2022-10-05T04:07:54.129Z,77.70
2022-10-05T04:11:43.479Z,77.40
2022-10-05T04:15:37.948Z,77.50
2022-10-05T04:19:24.753Z,77.70
2022-10-05T04:23:44.238Z,77.60
2022-10-05T04:27:41.913Z,78.00
2022-10-05T04:31:29.922Z,78.40
2022-10-05T04:35:53.182Z,78.20
2022-10-05T04:40:07.325Z,78.10
2022-10-05T04:44:04.326Z,78.40
2022-10-05T04:48:11.701Z,77.90
2022-10-05T04:52:24.643Z,78.60
2022-10-05T04:56:16.889Z,79.30
2022-10-05T05:00:22.530Z,78.20
2022-10-05T05:04:33.362Z,78.50
2022-10-05T05:08:29.441Z,79.20
2022-10-05T05:12:11.306Z,78.60
2022-10-05T05:16:07.589Z,78.80
2022-10-05T05:20:35.187Z,80.20
2022-10-05T05:24:22.946Z,80.10
2022-10-05T05:28:30.144Z,79.50
2022-10-05T05:32:15.121Z,80.00
2022-10-05T05:36:38.893Z,79.60
2022-10-05T05:40:59.405Z,80.80
2022-10-05T05:44:52.836Z,81.40
2022-10-05T05:48:40.857Z,80.00
2022-10-05T05:52:26.174Z,80.40
2022-10-05T05:56:17.919Z,80.70
2022-10-05T06:00:00.617Z,80.70
2022-10-05T06:03:56.644Z,80.20
2022-10-05T06:07:39.925Z,80.50
2022-10-05T06:11:35.192Z,80.50
2022-10-05T06:15:25.902Z,81.00
2022-10-05T06:19:17.634Z,80.50
2022-10-05T06:23:04.188Z,80.90
2022-10-05T06:27:16.830Z,80.30
2022-10-05T06:31:26.701Z,80.80
2022-10-05T06:35:19.572Z,80.70
2022-10-05T06:39:32.314Z,80.40
2022-10-05T06:43:45.271Z,81.00
2022-10-05T06:47:27.122Z,81.00
2022-10-05T06:51:31.880Z,80.20
2022-10-05T06:55:18.160Z,80.80
2022-10-05T06:59:25.707Z,80.20
2022-10-05T07:03:25.749Z,80.80
2022-10-05T07:07:16.629Z,80.30
2022-10-05T07:11:23.501Z,80.30
2022-10-05T07:15:23.741Z,80.60
2022-10-05T07:19:24.425Z,80.20
2022-10-05T07:23:32.211Z,80.20
2022-10-05T07:27:22.958Z,80.60
2022-10-05T07:31:12.161Z,80.30
2022-10-05T07:35:35.306Z,80.30
2022-10-05T07:39:20.266Z,80.00
2022-10-05T07:43:20.015Z,79.90
2022-10-05T07:47:07.395Z,79.90
2022-10-05T07:50:57.922Z,79.70
2022-10-05T07:54:50.371Z,79.60
2022-10-05T07:58:45.160Z,79.50
2022-10-05T08:02:34.512Z,79.10
2022-10-05T08:06:49.016Z,79.10
2022-10-05T08:10:59.769Z,79.10
2022-10-05T08:14:53.819Z,79.00
2022-10-05T08:18:38.535Z,79.00
2022-10-05T08:22:29.374Z,78.90
2022-10-05T08:26:14.088Z,78.90
2022-10-05T08:30:01.466Z,78.80
2022-10-05T08:33:58.806Z,78.80
2022-10-05T08:37:43.113Z,78.60
2022-10-05T08:41:56.143Z,78.60
2022-10-05T08:46:08.566Z,78.50
2022-10-05T08:50:13.191Z,78.20
2022-10-05T08:54:25.842Z,77.90
2022-10-05T08:58:26.650Z,77.40
2022-10-05T09:02:23.399Z,77.70
2022-10-05T09:06:08.482Z,77.70
2022-10-05T09:10:05.657Z,77.60
2022-10-05T09:13:57.929Z,77.10
2022-10-05T09:18:21.478Z,77.50
2022-10-05T09:22:06.440Z,77.40
2022-10-05T09:26:09.337Z,77.40
2022-10-05T09:30:02.829Z,77.60
2022-10-05T09:34:01.753Z,77.70
2022-10-05T09:37:55.951Z,78.90
2022-10-05T09:41:56.178Z,79.20
2022-10-05T09:46:01.514Z,78.40
2022-10-05T09:49:58.472Z,78.90
2022-10-05T09:53:43.527Z,80.10
2022-10-05T09:57:40.216Z,79.40
2022-10-05T10:01:35.000Z,80.70
2022-10-05T10:05:32.654Z,80.30
2022-10-05T10:09:36.597Z,82.10
2022-10-05T10:13:45.740Z,81.20
2022-10-05T10:17:30.738Z,81.50
2022-10-05T10:21:30.899Z,81.90
2022-10-05T10:25:22.381Z,81.40
2022-10-05T10:29:23.391Z,81.30
2022-10-05T10:33:19.777Z,81.60
2022-10-05T10:37:31.824Z,82.10
2022-10-05T10:41:34.621Z,83.40
2022-10-05T10:45:25.448Z,83.30
2022-10-05T10:49:15.784Z,82.60
2022-10-05T10:53:11.203Z,82.60
2022-10-05T10:57:15.239Z,82.60
2022-10-05T11:01:22.203Z,82.90
2022-10-05T11:05:32.310Z,83.60
2022-10-05T11:09:27.772Z,83.40
2022-10-05T11:13:28.558Z,82.90
2022-10-05T11:17:15.570Z,82.50
2022-10-05T11:21:17.579Z,82.40
2022-10-05T11:25:02.542Z,82.60
2022-10-05T11:29:12.716Z,82.50
2022-10-05T11:33:38.890Z,82.90
2022-10-05T11:37:20.782Z,82.60
2022-10-05T11:41:35.125Z,82.50
2022-10-05T11:45:27.920Z,82.70
2022-10-05T11:49:48.137Z,82.80
2022-10-05T11:53:32.638Z,82.70
2022-10-05T11:57:32.953Z,82.80
2022-10-05T12:01:23.455Z,81.80
2022-10-05T12:05:32.664Z,82.40
2022-10-05T12:10:21.348Z,82.40
2022-10-05T12:14:33.531Z,82.10
2022-10-05T12:18:19.514Z,82.30
2022-10-05T12:22:15.573Z,82.30
2022-10-05T12:26:00.543Z,82.20
2022-10-05T12:29:49.211Z,82.20
2022-10-05T12:34:03.082Z,82.10
2022-10-05T12:38:20.599Z,82.10
2022-10-05T12:42:39.401Z,81.60
2022-10-05T12:46:39.780Z,81.60
2022-10-05T12:50:47.003Z,81.60
2022-10-05T12:54:47.085Z,81.60
2022-10-05T12:58:38.802Z,81.60
2022-10-05T13:02:39.144Z,80.40
2022-10-05T13:06:40.087Z,80.40
2022-10-05T13:10:46.784Z,79.20
2022-10-05T13:14:52.193Z,79.50
2022-10-05T13:18:49.972Z,79.20
2022-10-05T13:22:43.499Z,79.50
2022-10-05T13:26:33.547Z,80.30
2022-10-05T13:30:22.120Z,80.80
2022-10-05T13:34:24.735Z,80.70
2022-10-05T13:38:27.682Z,80.80
2022-10-05T13:42:11.266Z,80.40
2022-10-05T13:46:24.222Z,80.60
2022-10-05T13:50:26.589Z,80.30
2022-10-05T13:54:40.577Z,78.70
2022-10-05T13:58:44.935Z,78.00
2022-10-05T14:02:38.346Z,78.60
2022-10-05T14:06:30.094Z,78.60
2022-10-05T14:10:14.493Z,78.40
2022-10-05T14:14:14.217Z,78.40
2022-10-05T14:17:56.290Z,76.30
2022-10-05T14:21:58.809Z,73.70
2022-10-05T14:25:53.762Z,75.00
2022-10-05T14:29:38.253Z,76.40
2022-10-05T14:33:21.551Z,76.20
2022-10-05T14:37:20.616Z,75.50
2022-10-05T14:41:19.819Z,75.50
2022-10-05T14:45:17.846Z,76.40
2022-10-05T14:49:30.229Z,72.20
2022-10-05T14:53:12.165Z,66.30
2022-10-05T14:57:00.103Z,74.60
2022-10-05T15:00:55.399Z,72.40
2022-10-05T15:04:44.849Z,72.00
2022-10-05T15:09:09.134Z,70.30
2022-10-05T15:13:16.130Z,68.90
2022-10-05T15:17:12.722Z,68.40
2022-10-05T15:21:00.597Z,71.40
2022-10-05T15:24:51.778Z,71.70
2022-10-05T15:28:42.337Z,71.30
2022-10-05T15:32:42.316Z,71.40
2022-10-05T15:36:35.761Z,70.90
2022-10-05T15:40:28.091Z,70.70
2022-10-05T15:44:24.257Z,70.60
2022-10-05T15:48:06.299Z,70.60
2022-10-05T15:52:06.041Z,70.90
2022-10-05T15:55:51.269Z,69.30
2022-10-05T15:59:38.674Z,69.30
2022-10-05T16:03:26.491Z,69.70
2022-10-05T16:07:37.519Z,69.30
2022-10-05T16:11:41.380Z,68.50
2022-10-05T16:15:46.458Z,64.00
2022-10-05T16:19:35.262Z,66.00
2022-10-05T16:23:29.871Z,66.50
2022-10-05T16:27:57.343Z,66.00
2022-10-05T16:31:47.193Z,64.00
2022-10-05T16:35:56.910Z,67.90
2022-10-05T16:40:02.818Z,66.80
2022-10-05T16:44:00.608Z,64.30
2022-10-05T16:47:48.652Z,62.40
2022-10-05T16:51:52.282Z,62.00
2022-10-05T16:55:42.115Z,60.40
2022-10-05T16:59:48.554Z,62.20
2022-10-05T17:04:06.952Z,60.50
2022-10-05T17:08:27.858Z,62.80
2022-10-05T17:12:34.576Z,62.80
2022-10-05T17:16:50.450Z,62.50
2022-10-05T17:20:42.964Z,61.80
2022-10-05T17:24:27.832Z,64.00
2022-10-05T17:28:18.296Z,64.00
2022-10-05T17:32:06.334Z,64.20
2022-10-05T17:36:12.855Z,64.50
2022-10-05T17:39:56.645Z,64.20
2022-10-05T17:43:38.686Z,65.00
2022-10-05T17:47:59.377Z,65.30
2022-10-05T17:51:59.915Z,65.50
2022-10-05T17:55:46.258Z,66.00
2022-10-05T17:59:46.475Z,66.20
2022-10-05T18:03:51.844Z,65.50
2022-10-05T18:07:38.609Z,66.30
2022-10-05T18:11:38.277Z,66.50
2022-10-05T18:15:26.206Z,66.60
2022-10-05T18:19:16.789Z,66.80
2022-10-05T18:23:07.273Z,66.90
2022-10-05T18:27:31.999Z,66.90
2022-10-05T18:31:51.424Z,64.70
2022-10-05T18:35:42.980Z,65.90
2022-10-05T18:39:45.802Z,65.80
2022-10-05T18:43:30.784Z,65.70
2022-10-05T18:47:18.150Z,66.00
2022-10-05T18:51:12.734Z,66.10
2022-10-05T18:54:55.028Z,65.70
2022-10-05T18:58:52.064Z,66.10
2022-10-05T19:02:48.236Z,66.10
2022-10-05T19:06:34.714Z,65.80
2022-10-05T19:10:51.858Z,66.10
2022-10-05T19:14:47.447Z,65.10
2022-10-05T19:18:29.751Z,66.00
2022-10-05T19:22:42.792Z,65.70
2022-10-05T19:26:54.901Z,65.80
2022-10-05T19:31:17.987Z,65.30
2022-10-05T19:35:11.510Z,65.90
2022-10-05T19:39:21.360Z,66.00
2022-10-05T19:43:37.982Z,66.00
2022-10-05T19:47:44.443Z,66.20
2022-10-05T19:51:31.820Z,67.10
2022-10-05T19:55:15.644Z,66.90
2022-10-05T19:58:59.385Z,67.30
2022-10-05T20:02:42.197Z,67.90
2022-10-05T20:06:26.808Z,67.90
2022-10-05T20:10:30.775Z,68.10
2022-10-05T20:14:13.874Z,69.00
2022-10-05T20:18:14.469Z,68.60
2022-10-05T20:21:59.218Z,68.90
2022-10-05T20:25:41.578Z,69.10
2022-10-05T20:29:23.533Z,69.40
2022-10-05T20:33:10.532Z,69.70
2022-10-05T20:36:52.479Z,69.80
2022-10-05T20:40:35.142Z,70.10
2022-10-05T20:44:17.078Z,70.40
2022-10-05T20:47:59.132Z,70.50
2022-10-05T20:51:41.058Z,70.70
2022-10-05T20:55:22.968Z,71.00
2022-10-05T20:59:04.858Z,71.10
2022-10-05T21:02:47.004Z,71.10
2022-10-05T21:06:29.504Z,71.20
2022-10-05T21:10:12.072Z,71.40
2022-10-05T21:13:54.628Z,71.70
2022-10-05T21:17:38.102Z,71.80
2022-10-05T21:21:20.190Z,72.10
2022-10-05T21:25:02.562Z,72.00
2022-10-05T21:28:44.500Z,72.00
2022-10-05T21:32:26.517Z,72.20
2022-10-05T21:36:08.458Z,72.10
2022-10-05T21:39:50.427Z,72.20
2022-10-05T21:43:32.321Z,72.20
2022-10-05T21:47:14.237Z,72.40
2022-10-05T21:50:56.243Z,72.40
2022-10-05T21:54:38.261Z,72.30
2022-10-05T21:58:22.546Z,72.40
2022-10-05T22:02:04.522Z,72.40
2022-10-05T22:05:46.601Z,72.50
2022-10-05T22:09:28.665Z,72.60
2022-10-05T22:13:10.693Z,72.70
2022-10-05T22:16:53.413Z,72.70
2022-10-05T22:20:35.776Z,72.80
2022-10-05T22:24:17.806Z,72.80
2022-10-05T22:28:02.983Z,72.70
2022-10-05T22:31:48.750Z,72.90
2022-10-05T22:35:37.078Z,72.90
2022-10-05T22:39:19.153Z,73.10
2022-10-05T22:43:01.019Z,73.30
2022-10-05T22:46:43.189Z,73.00
2022-10-05T22:50:25.150Z,73.20
2022-10-05T22:54:07.165Z,73.20
2022-10-05T22:57:49.404Z,73.30
2022-10-05T23:01:31.398Z,73.30
2022-10-05T23:05:14.661Z,73.30
2022-10-05T23:08:56.968Z,73.40
2022-10-05T23:12:39.139Z,73.60
2022-10-05T23:16:23.697Z,73.50
2022-10-05T23:20:08.600Z,73.50
2022-10-05T23:23:53.561Z,73.50
2022-10-05T23:27:40.094Z,73.60
2022-10-05T23:31:25.447Z,73.80
2022-10-05T23:35:08.877Z,73.90
2022-10-05T23:38:51.380Z,74.00
2022-10-05T23:42:33.351Z,73.90
2022-10-05T23:46:16.158Z,73.80
2022-10-05T23:49:58.156Z,73.80
2022-10-05T23:53:40.081Z,73.90
2022-10-05T23:57:22.005Z,73.90
